CheckWX is a tool to help pilots better visualize weather data.  It is not intended as a substitute for an official pre-flight weather briefing.

03:00:30 UTC

KQFV METAR
Sachang
Sachang, South Korea
Current

21 mins ago

KQFV 240240Z AUTO 17003G13KT 9999 CLR 06/M12 A3015 RMK A02 TSNO
Observed
Mar-24 @ 02:40 UTC
Wind
  • 170° at 3 KTS
  • Gusting to 13 KTS
Visibility
10,000+ meters
Flight Rules
VFR
Cloud Levels
  • Clear skies
Temperature
C / 43°F
Dewpoint
-12°C / 10°F
Humidity
26%
Altimeter
30.15" Hg
Pressure
1021.02 hPa
Previous

1 hour ago

KQFV 240200Z AUTO 17003KT 9999 CLR 05/M12 A3017 RMK A02 TSNO
Observed
Mar-24 @ 02:00 UTC
Wind
  • 170° at 3 KTS
Visibility
10,000+ meters
Flight Rules
VFR
Cloud Levels
  • Clear skies
Temperature
C / 41°F
Dewpoint
-12°C / 10°F
Humidity
28%
Altimeter
30.17" Hg
Pressure
1021.72 hPa
Previous

2 hours ago

KQFV 240130Z AUTO 20003KT 9999 CLR 04/M12 A3017 RMK A02 TSNO
Observed
Mar-24 @ 01:30 UTC
Wind
  • 200° at 3 KTS
Visibility
10,000+ meters
Flight Rules
VFR
Cloud Levels
  • Clear skies
Temperature
C / 39°F
Dewpoint
-12°C / 10°F
Humidity
30%
Altimeter
30.17" Hg
Pressure
1021.72 hPa